Hauptseite
METAR-TAF:

METAR-TAF

Flughäfen :

Baden-Baden, Deutschland

Flughafen Karlsruhe/Baden-Baden

Breite: 48-46-43N, Länge: 008-04-47E, Höhe: 124 m

Beobachtung

Neuester Wetterbericht von vor 14 Minuten, um 11:20 UTC
Wind 19 kt aus Nordost
Temperatur 14°C
Luftfeuchtigkeit 51%
Luftdruck 1022 hPa
Sichtweite 10 km oder mehr
keine Wolken unter 1500 m und keine Kumulonimbus oder Gewitterwolken

METAR: EDSB 251120Z 04019KT CAVOK 14/04 Q1022

Zeit: 12:34 (11:34 UTC)

Prognose

Neuester Wetterbericht von vor 6 Stunden und 34 Minuten, um 05:00 UTC
Gültige Prognose vom 25 um 06 UTC bis 26 um 06 UTC
Wind 12 kt aus Nord/Nordost
Sichtweite 10 km oder mehr
keine Wolken unter 1500 m und keine Kumulonimbus oder Gewitterwolken
Zeitweise
vom 25 um 06 UTC bis 25 um 18 UTC
Wind 15 kt aus Nord/Nordost, Böen bis zu 25 kt

TAF: EDSB 250500Z 2506/2606 03012KT CAVOK TEMPO 2506/2518 03015G25KT

Wetterbeobachtungen und Prognosen von mehr als 4000 Flughäfen (METAR und TAF Bericht).

Die verfügbaren Stationen werden durch gelbe und rote Markierungen auf der Karte dargestellt.

Führen Sie die Maus auf sie, um den Namen der Station zu sehen.

Darauf klicken, um die Beobachtung von Wetterbeobachtungen und Prognosen zu sehen.

Um die Karte zu ändern : klicken Sie auf den grünen Tasten mit einem schwarzen Kreuz Zum Vergrößern, auf den grünen Button mit einem Gedankenstrich zu verkleinern, oder auf die grünen Pfeile für benachbarte Karten.


METAR-TAF: